createdAt,value
2023-01-19T00:00:21.309Z,100140.78
2023-01-19T00:02:48.436Z,100135.84
2023-01-19T00:05:15.328Z,100135.03
2023-01-19T00:07:42.190Z,100136.91
2023-01-19T00:10:09.888Z,100139.66
2023-01-19T00:12:36.838Z,100125.97
2023-01-19T00:15:03.708Z,100126.91
2023-01-19T00:17:30.669Z,100129.50
2023-01-19T00:19:57.497Z,100145.41
2023-01-19T00:22:24.388Z,100132.50
2023-01-19T00:24:51.167Z,100136.44
2023-01-19T00:27:17.977Z,100140.00
2023-01-19T00:29:44.859Z,100139.88
2023-01-19T00:32:11.667Z,100138.34
2023-01-19T00:34:39.836Z,100137.41
2023-01-19T00:37:07.457Z,100135.75
2023-01-19T00:39:34.323Z,100143.69
2023-01-19T00:42:11.520Z,100146.53
2023-01-19T00:44:38.339Z,100149.16
2023-01-19T00:47:05.994Z,100150.25
2023-01-19T00:49:32.701Z,100144.22
2023-01-19T00:51:59.476Z,100143.50
2023-01-19T00:54:27.598Z,100152.41
2023-01-19T00:56:54.520Z,100143.88
2023-01-19T00:59:21.322Z,100137.03
2023-01-19T01:01:50.363Z,100148.41
2023-01-19T01:04:17.185Z,100141.56
2023-01-19T01:06:43.955Z,100139.06
2023-01-19T01:09:13.706Z,100144.38
2023-01-19T01:11:44.530Z,100149.75
2023-01-19T01:14:12.552Z,100155.19
2023-01-19T01:16:39.793Z,100149.16
2023-01-19T01:19:06.596Z,100148.22
2023-01-19T01:21:34.920Z,100141.50
2023-01-19T01:24:02.158Z,100151.06
2023-01-19T01:26:29.514Z,100149.53
2023-01-19T01:28:56.378Z,100154.19
2023-01-19T01:31:23.472Z,100153.34
2023-01-19T01:33:50.339Z,100154.19
2023-01-19T01:36:19.257Z,100151.81
2023-01-19T01:38:46.065Z,100154.41
2023-01-19T01:41:12.918Z,100165.09
2023-01-19T01:43:43.066Z,100165.34
2023-01-19T01:46:09.760Z,100160.16
2023-01-19T01:48:37.663Z,100162.75
2023-01-19T01:51:16.782Z,100165.34
2023-01-19T01:53:44.909Z,100162.75
2023-01-19T01:56:14.283Z,100157.53
2023-01-19T01:58:41.323Z,100163.81
2023-01-19T02:01:17.857Z,100161.59
2023-01-19T02:03:44.635Z,100168.69
2023-01-19T02:06:12.526Z,100157.31
2023-01-19T02:08:54.783Z,100171.16
2023-01-19T02:11:31.780Z,100161.97
2023-01-19T02:13:58.642Z,100155.94
2023-01-19T02:16:25.476Z,100163.03
2023-01-19T02:18:52.674Z,100168.38
2023-01-19T02:21:23.447Z,100168.47
2023-01-19T02:23:52.139Z,100171.09
2023-01-19T02:26:21.618Z,100164.38
2023-01-19T02:28:50.653Z,100168.75
2023-01-19T02:31:18.110Z,100171.34
2023-01-19T02:33:45.123Z,100178.31
2023-01-19T02:36:13.668Z,100173.13
2023-01-19T02:38:41.852Z,100172.28
2023-01-19T02:41:12.403Z,100168.84
2023-01-19T02:43:39.636Z,100170.75
2023-01-19T02:46:06.312Z,100168.16
2023-01-19T02:48:33.321Z,100167.31
2023-01-19T02:51:04.481Z,100165.81
2023-01-19T02:53:31.358Z,100167.69
2023-01-19T02:56:03.443Z,100169.72
2023-01-19T02:58:36.537Z,100162.19
2023-01-19T03:01:13.831Z,100163.13
2023-01-19T03:03:41.740Z,100169.28
2023-01-19T03:06:14.827Z,100170.47
2023-01-19T03:08:41.781Z,100175.78
2023-01-19T03:11:10.364Z,100169.06
2023-01-19T03:13:37.593Z,100167.31
2023-01-19T03:16:04.940Z,100169.75
2023-01-19T03:18:33.923Z,100177.56
2023-01-19T03:21:04.312Z,100172.25
2023-01-19T03:23:32.081Z,100176.50
2023-01-19T03:26:00.470Z,100180.03
2023-01-19T03:28:28.654Z,100180.88
2023-01-19T03:30:59.109Z,100187.84
2023-01-19T03:33:28.941Z,100183.00
2023-01-19T03:35:59.154Z,100180.53
2023-01-19T03:38:27.627Z,100180.78
2023-01-19T03:40:56.784Z,100174.88
2023-01-19T03:43:24.132Z,100182.66
2023-01-19T03:45:51.525Z,100175.81
2023-01-19T03:48:19.255Z,100175.81
2023-01-19T03:50:46.095Z,100184.56
2023-01-19T03:53:15.452Z,100188.13
2023-01-19T03:55:45.992Z,100185.63
2023-01-19T03:58:12.874Z,100194.50
2023-01-19T04:00:40.051Z,100184.13
2023-01-19T04:03:12.110Z,100181.38
2023-01-19T04:05:39.806Z,100187.78
2023-01-19T04:08:07.003Z,100186.25
2023-01-19T04:10:34.050Z,100187.19
2023-01-19T04:13:02.109Z,100190.72
2023-01-19T04:15:29.526Z,100191.69
2023-01-19T04:17:58.109Z,100192.50
2023-01-19T04:20:27.231Z,100190.84
2023-01-19T04:22:55.292Z,100190.00
2023-01-19T04:25:22.654Z,100185.78
2023-01-19T04:27:51.894Z,100184.25
2023-01-19T04:30:19.064Z,100186.94
2023-01-19T04:32:46.017Z,100193.13
2023-01-19T04:35:12.850Z,100194.06
2023-01-19T04:37:40.353Z,100196.66
2023-01-19T04:40:07.868Z,100186.13
2023-01-19T04:42:34.767Z,100186.94
2023-01-19T04:45:01.651Z,100189.56
2023-01-19T04:47:28.455Z,100188.72
2023-01-19T04:49:55.385Z,100191.47
2023-01-19T04:52:22.269Z,100193.22
2023-01-19T04:54:49.324Z,100182.13
2023-01-19T04:57:16.255Z,100182.13
2023-01-19T04:59:43.076Z,100182.13
2023-01-19T05:02:10.084Z,100183.06
2023-01-19T05:04:36.984Z,100179.66
2023-01-19T05:07:03.832Z,100177.88
2023-01-19T05:09:30.950Z,100177.19
2023-01-19T05:11:57.823Z,100172.22
2023-01-19T05:14:24.796Z,100181.66
2023-01-19T05:16:51.660Z,100167.00
2023-01-19T05:19:18.536Z,100170.44
2023-01-19T05:21:45.663Z,100173.88
2023-01-19T05:24:12.679Z,100178.22
2023-01-19T05:26:39.623Z,100174.94
2023-01-19T05:29:06.542Z,100178.38
2023-01-19T05:31:33.590Z,100183.69
2023-01-19T05:34:00.599Z,100181.19
2023-01-19T05:36:28.214Z,100179.53
2023-01-19T05:38:55.073Z,100185.56
2023-01-19T05:41:21.935Z,100176.81
2023-01-19T05:43:48.848Z,100178.59
2023-01-19T05:46:15.844Z,100176.81
2023-01-19T05:48:42.842Z,100179.53
2023-01-19T05:51:09.646Z,100172.72
2023-01-19T05:53:36.532Z,100178.72
2023-01-19T05:56:05.192Z,100176.25
2023-01-19T05:58:32.355Z,100176.47
2023-01-19T06:01:02.570Z,100181.09
2023-01-19T06:03:29.811Z,100168.22
2023-01-19T06:05:57.790Z,100180.63
2023-01-19T06:08:24.779Z,100171.31
2023-01-19T06:10:51.883Z,100172.59
2023-01-19T06:13:18.786Z,100170.59
2023-01-19T06:15:45.912Z,100174.00
2023-01-19T06:18:14.650Z,100177.44
2023-01-19T06:20:41.473Z,100170.47
2023-01-19T06:23:08.424Z,100167.88
2023-01-19T06:25:35.429Z,100170.00
2023-01-19T06:28:02.364Z,100160.09
2023-01-19T06:30:29.338Z,100164.00
2023-01-19T06:32:56.209Z,100172.72
2023-01-19T06:35:23.089Z,100169.28
2023-01-19T06:37:49.942Z,100182.06
2023-01-19T06:40:16.992Z,100180.41
2023-01-19T06:42:43.866Z,100171.78
2023-01-19T06:45:11.020Z,100179.47
2023-01-19T06:47:37.934Z,100175.19
2023-01-19T06:50:05.232Z,100186.06
2023-01-19T06:52:32.112Z,100186.53
2023-01-19T06:54:59.160Z,100184.41
2023-01-19T06:57:26.151Z,100182.63
2023-01-19T06:59:53.158Z,100194.78
2023-01-19T07:02:27.640Z,100190.66
2023-01-19T07:04:54.918Z,100188.88
2023-01-19T07:07:21.768Z,100203.53
2023-01-19T07:09:48.677Z,100197.03
2023-01-19T07:12:15.594Z,100202.22
2023-01-19T07:14:42.753Z,100205.41
2023-01-19T07:17:09.713Z,100202.31
2023-01-19T07:19:36.697Z,100216.84
2023-01-19T07:22:03.553Z,100216.16
2023-01-19T07:24:31.622Z,100218.75
2023-01-19T07:26:58.833Z,100216.03
2023-01-19T07:29:25.930Z,100219.44
2023-01-19T07:31:54.839Z,100221.22
2023-01-19T07:34:22.235Z,100231.72
2023-01-19T07:36:49.268Z,100220.50
2023-01-19T07:39:16.213Z,100222.28
2023-01-19T07:41:48.455Z,100218.75
2023-01-19T07:44:15.414Z,100227.84
2023-01-19T07:46:43.626Z,100228.41
2023-01-19T07:49:10.658Z,100223.09
2023-01-19T07:51:37.768Z,100224.16
2023-01-19T07:54:04.735Z,100231.38
2023-01-19T07:56:33.904Z,100234.91
2023-01-19T07:59:01.321Z,100240.94
2023-01-19T08:01:28.866Z,100232.88
2023-01-19T08:03:55.968Z,100236.56
2023-01-19T08:06:24.263Z,100238.44
2023-01-19T08:08:51.231Z,100246.59
2023-01-19T08:11:18.136Z,100241.66
2023-01-19T08:13:45.142Z,100245.91
2023-01-19T08:16:12.142Z,100240.72
2023-01-19T08:18:39.229Z,100239.63
2023-01-19T08:21:06.348Z,100241.19
2023-01-19T08:23:33.349Z,100239.28
2023-01-19T08:26:00.331Z,100234.78
2023-01-19T08:28:27.349Z,100233.84
2023-01-19T08:30:54.806Z,100243.06
2023-01-19T08:33:22.368Z,100245.31
2023-01-19T08:35:50.167Z,100263.38
2023-01-19T08:38:17.907Z,100264.06
2023-01-19T08:40:44.867Z,100262.28
2023-01-19T08:43:13.510Z,100263.00
2023-01-19T08:45:42.668Z,100256.88
2023-01-19T08:48:10.565Z,100263.97
2023-01-19T08:50:37.775Z,100258.75
2023-01-19T08:53:07.190Z,100259.47
2023-01-19T08:55:34.887Z,100268.06
2023-01-19T08:58:02.510Z,100264.78
2023-01-19T09:00:31.780Z,100259.00
2023-01-19T09:02:59.070Z,100272.00
2023-01-19T09:05:26.165Z,100259.13
2023-01-19T09:07:53.128Z,100264.81
2023-01-19T09:10:20.168Z,100257.94
2023-01-19T09:12:47.114Z,100266.19
2023-01-19T09:15:15.212Z,100274.50
2023-01-19T09:17:42.693Z,100271.94
2023-01-19T09:20:10.148Z,100273.41
2023-01-19T09:22:37.290Z,100276.22
2023-01-19T09:25:04.663Z,100279.09
2023-01-19T09:27:31.608Z,100283.00
2023-01-19T09:29:59.054Z,100280.75
2023-01-19T09:32:26.234Z,100279.56
2023-01-19T09:34:55.522Z,100279.81
2023-01-19T09:37:22.688Z,100282.88
2023-01-19T09:39:49.698Z,100282.88
2023-01-19T09:42:18.649Z,100281.09
2023-01-19T09:44:47.733Z,100286.88
2023-01-19T09:47:16.724Z,100284.03
2023-01-19T09:49:46.139Z,100284.63
2023-01-19T09:52:14.083Z,100279.88
2023-01-19T09:54:47.975Z,100291.81
2023-01-19T09:57:15.323Z,100288.13
2023-01-19T09:59:44.220Z,100285.28
2023-01-19T10:02:14.240Z,100298.06
2023-01-19T10:04:41.688Z,100299.56
2023-01-19T10:07:10.240Z,100302.91
2023-01-19T10:09:40.259Z,100302.63
2023-01-19T10:12:19.113Z,100305.94
2023-01-19T10:14:53.893Z,100307.47
2023-01-19T10:17:29.460Z,100297.50
2023-01-19T10:19:57.776Z,100300.94
2023-01-19T10:22:26.001Z,100303.41
2023-01-19T10:24:55.844Z,100310.03
2023-01-19T10:27:25.108Z,100312.38
2023-01-19T10:29:52.107Z,100308.59
2023-01-19T10:32:22.319Z,100317.91
2023-01-19T10:34:50.169Z,100317.66
2023-01-19T10:37:18.695Z,100319.56
2023-01-19T10:39:46.603Z,100313.97
2023-01-19T10:42:15.935Z,100314.31
2023-01-19T10:44:43.425Z,100312.97
2023-01-19T10:47:13.549Z,100310.94
2023-01-19T10:49:43.155Z,100311.66
2023-01-19T10:52:13.255Z,100310.56
2023-01-19T10:54:43.483Z,100310.44
2023-01-19T10:57:12.818Z,100300.69
2023-01-19T10:59:42.960Z,100309.94
2023-01-19T11:02:13.118Z,100299.13
2023-01-19T11:04:40.292Z,100303.81
2023-01-19T11:07:10.416Z,100302.72
2023-01-19T11:09:37.525Z,100304.38
2023-01-19T11:12:04.598Z,100300.44
2023-01-19T11:14:32.060Z,100296.50
2023-01-19T11:16:59.489Z,100295.97
2023-01-19T11:19:28.789Z,100291.88
2023-01-19T11:22:03.599Z,100298.25
2023-01-19T11:24:30.920Z,100296.88
2023-01-19T11:27:03.251Z,100292.91
2023-01-19T11:29:30.383Z,100291.56
2023-01-19T11:32:09.913Z,100292.69
2023-01-19T11:34:39.166Z,100287.63
2023-01-19T11:37:25.071Z,100296.47
2023-01-19T11:39:53.303Z,100295.09
2023-01-19T11:42:20.704Z,100291.81
2023-01-19T11:44:50.815Z,100292.94
2023-01-19T11:47:23.697Z,100292.66
2023-01-19T11:49:50.992Z,100294.84
2023-01-19T11:52:21.008Z,100303.09
2023-01-19T11:54:55.688Z,100302.69
2023-01-19T11:57:22.961Z,100297.25
2023-01-19T11:59:50.853Z,100290.09
2023-01-19T12:02:20.997Z,100296.00
2023-01-19T12:04:49.814Z,100300.13
2023-01-19T12:07:19.857Z,100293.53
2023-01-19T12:09:47.869Z,100285.84
2023-01-19T12:12:18.167Z,100282.41
2023-01-19T12:14:48.122Z,100279.94
2023-01-19T12:17:23.328Z,100278.97
2023-01-19T12:19:55.168Z,100274.59
2023-01-19T12:22:24.083Z,100273.59
2023-01-19T12:24:54.199Z,100274.84
2023-01-19T12:27:27.516Z,100267.16
2023-01-19T12:29:55.185Z,100264.66
2023-01-19T12:32:33.071Z,100270.16
2023-01-19T12:35:00.447Z,100263.41
2023-01-19T12:37:32.463Z,100268.38
2023-01-19T12:40:03.219Z,100262.31
2023-01-19T12:42:30.433Z,100261.34
2023-01-19T12:45:00.453Z,100255.84
2023-01-19T12:47:27.628Z,100267.13
2023-01-19T12:49:56.899Z,100261.06
2023-01-19T12:52:27.614Z,100262.72
2023-01-19T12:54:54.863Z,100266.28
2023-01-19T12:57:25.375Z,100265.34
2023-01-19T12:59:57.514Z,100259.16
2023-01-19T13:02:25.056Z,100248.53
2023-01-19T13:04:55.120Z,100251.97
2023-01-19T13:07:22.124Z,100260.50
2023-01-19T13:09:49.150Z,100254.19
2023-01-19T13:12:19.113Z,100255.00
2023-01-19T13:14:46.260Z,100252.38
2023-01-19T13:17:16.283Z,100245.22
2023-01-19T13:19:45.295Z,100238.75
2023-01-19T13:22:20.958Z,100243.00
2023-01-19T13:24:51.075Z,100245.19
2023-01-19T13:27:18.199Z,100241.50
2023-01-19T13:29:45.520Z,100243.69
2023-01-19T13:32:16.234Z,100252.19
2023-01-19T13:34:45.511Z,100257.16
2023-01-19T13:37:15.559Z,100253.69
2023-01-19T13:39:45.072Z,100255.34
2023-01-19T13:42:15.115Z,100250.97
2023-01-19T13:44:46.697Z,100256.03
2023-01-19T13:47:16.818Z,100254.09
2023-01-19T13:49:45.645Z,100254.94
2023-01-19T13:52:14.963Z,100252.16
2023-01-19T13:54:45.161Z,100259.84
2023-01-19T13:57:15.147Z,100262.34
2023-01-19T13:59:42.223Z,100259.03
2023-01-19T14:02:14.141Z,100264.25
2023-01-19T14:04:41.214Z,100258.06
2023-01-19T14:07:14.028Z,100269.34
2023-01-19T14:09:41.038Z,100267.69
2023-01-19T14:12:11.432Z,100275.53
2023-01-19T14:14:38.907Z,100274.88
2023-01-19T14:17:17.817Z,100268.13
2023-01-19T14:19:48.155Z,100274.06
2023-01-19T14:22:15.348Z,100275.69
2023-01-19T14:24:42.536Z,100279.81
2023-01-19T14:27:18.481Z,100283.91
2023-01-19T14:29:47.636Z,100285.75
2023-01-19T14:32:17.713Z,100292.88
2023-01-19T14:34:47.716Z,100289.31
2023-01-19T14:37:17.440Z,100288.34
2023-01-19T14:39:46.428Z,100295.22
2023-01-19T14:42:17.532Z,100289.84
2023-01-19T14:44:48.313Z,100288.34
2023-01-19T14:47:18.307Z,100286.53
2023-01-19T14:49:47.717Z,100289.16
2023-01-19T14:52:17.848Z,100293.72
2023-01-19T14:54:46.630Z,100289.44
2023-01-19T14:57:14.153Z,100289.44
2023-01-19T14:59:41.494Z,100293.72
2023-01-19T15:02:09.582Z,100298.25
2023-01-19T15:04:36.898Z,100296.47
2023-01-19T15:07:03.837Z,100292.34
2023-01-19T15:09:30.986Z,100302.81
2023-01-19T15:11:58.583Z,100296.88
2023-01-19T15:14:26.377Z,100297.84
2023-01-19T15:16:53.341Z,100299.81
2023-01-19T15:19:20.438Z,100299.09
2023-01-19T15:21:47.384Z,100314.91
2023-01-19T15:24:17.540Z,100318.34
2023-01-19T15:26:45.500Z,100327.16
2023-01-19T15:29:15.759Z,100335.16
2023-01-19T15:31:42.885Z,100348.22
2023-01-19T15:34:12.723Z,100353.59
2023-01-19T15:36:39.739Z,100355.38
2023-01-19T15:39:06.874Z,100352.09
2023-01-19T15:41:34.276Z,100352.34
2023-01-19T15:44:01.258Z,100360.50
2023-01-19T15:46:28.377Z,100361.75
2023-01-19T15:48:55.636Z,100362.81
2023-01-19T15:51:25.845Z,100360.50
2023-01-19T15:53:53.429Z,100354.44
2023-01-19T15:56:22.183Z,100364.19
2023-01-19T15:58:49.295Z,100365.31
2023-01-19T16:01:17.816Z,100369.84
2023-01-19T16:03:45.263Z,100371.91
2023-01-19T16:06:13.183Z,100377.38
2023-01-19T16:08:40.298Z,100384.41
2023-01-19T16:11:08.080Z,100384.56
2023-01-19T16:13:35.398Z,100393.47
2023-01-19T16:16:04.138Z,100390.19
2023-01-19T16:18:31.384Z,100394.00
2023-01-19T16:20:58.348Z,100387.41
2023-01-19T16:23:25.699Z,100392.78
2023-01-19T16:25:55.772Z,100404.03
2023-01-19T16:28:22.781Z,100402.25
2023-01-19T16:30:51.428Z,100412.88
2023-01-19T16:33:18.806Z,100407.78
2023-01-19T16:35:45.934Z,100420.28
2023-01-19T16:38:13.041Z,100415.31
2023-01-19T16:40:40.172Z,100413.81
2023-01-19T16:43:07.340Z,100422.72
2023-01-19T16:45:34.315Z,100430.97
2023-01-19T16:48:01.339Z,100432.88
2023-01-19T16:50:28.548Z,100435.88
2023-01-19T16:52:57.429Z,100429.16
2023-01-19T16:55:24.818Z,100443.03
2023-01-19T16:57:52.887Z,100445.75
2023-01-19T17:00:20.316Z,100452.09
2023-01-19T17:02:47.806Z,100457.31
2023-01-19T17:05:15.223Z,100464.44
2023-01-19T17:07:42.680Z,100452.44
2023-01-19T17:10:10.718Z,100457.66
2023-01-19T17:12:38.087Z,100455.03
2023-01-19T17:15:05.844Z,100452.81
2023-01-19T17:17:35.528Z,100458.19
2023-01-19T17:20:04.160Z,100461.75
2023-01-19T17:22:31.517Z,100470.41
2023-01-19T17:24:58.775Z,100473.03
2023-01-19T17:27:26.114Z,100473.28
2023-01-19T17:29:53.477Z,100475.31
2023-01-19T17:32:20.920Z,100480.66
2023-01-19T17:34:49.662Z,100479.03
2023-01-19T17:37:16.941Z,100487.81
2023-01-19T17:39:44.081Z,100485.44
2023-01-19T17:42:11.302Z,100493.44
2023-01-19T17:44:38.528Z,100498.06
2023-01-19T17:47:05.849Z,100491.22
2023-01-19T17:49:33.606Z,100491.22
2023-01-19T17:52:01.173Z,100500.94
2023-01-19T17:54:28.588Z,100503.81
2023-01-19T17:56:56.851Z,100499.66
2023-01-19T17:59:24.058Z,100513.53
2023-01-19T18:01:51.198Z,100518.06
2023-01-19T18:04:18.425Z,100520.94
2023-01-19T18:06:47.523Z,100531.34
2023-01-19T18:09:14.772Z,100537.53
2023-01-19T18:11:43.224Z,100539.47
2023-01-19T18:14:10.503Z,100543.00
2023-01-19T18:16:37.866Z,100544.91
2023-01-19T18:19:04.964Z,100546.84
2023-01-19T18:21:32.015Z,100554.06
2023-01-19T18:24:01.545Z,100556.81
2023-01-19T18:26:29.753Z,100552.53
2023-01-19T18:28:57.460Z,100563.94
2023-01-19T18:31:25.176Z,100574.38
2023-01-19T18:33:52.531Z,100568.19
2023-01-19T18:36:19.611Z,100576.97
2023-01-19T18:38:47.219Z,100577.09
2023-01-19T18:41:16.009Z,100584.91
2023-01-19T18:43:43.725Z,100576.41
2023-01-19T18:46:11.489Z,100579.13
2023-01-19T18:48:39.155Z,100586.22
2023-01-19T18:51:08.080Z,100583.06
2023-01-19T18:53:35.476Z,100579.72
2023-01-19T18:56:03.662Z,100585.94
2023-01-19T18:58:32.013Z,100592.09
2023-01-19T19:00:59.876Z,100589.59
2023-01-19T19:03:27.118Z,100591.38
2023-01-19T19:05:54.358Z,100591.47
2023-01-19T19:08:21.347Z,100596.84
2023-01-19T19:10:48.383Z,100596.84
2023-01-19T19:13:16.129Z,100598.50
2023-01-19T19:15:44.733Z,100605.50
2023-01-19T19:18:14.283Z,100601.13
2023-01-19T19:20:43.480Z,100616.03
2023-01-19T19:23:11.258Z,100603.00
2023-01-19T19:25:38.726Z,100614.50
2023-01-19T19:28:05.956Z,100614.75
2023-01-19T19:30:34.949Z,100620.91
2023-01-19T19:33:01.974Z,100623.66
2023-01-19T19:35:29.061Z,100612.50
2023-01-19T19:37:58.003Z,100623.88
2023-01-19T19:40:25.841Z,100624.00
2023-01-19T19:42:52.829Z,100626.75
2023-01-19T19:45:20.423Z,100630.31
2023-01-19T19:47:47.719Z,100629.56
2023-01-19T19:50:15.226Z,100633.97
2023-01-19T19:52:42.504Z,100639.31
2023-01-19T19:55:10.095Z,100625.56
2023-01-19T19:57:37.342Z,100641.31
2023-01-19T20:00:05.518Z,100643.13
2023-01-19T20:02:32.963Z,100645.72
2023-01-19T20:05:00.245Z,100642.41
2023-01-19T20:07:27.287Z,100645.00
2023-01-19T20:09:55.372Z,100657.22
2023-01-19T20:12:23.055Z,100647.72
2023-01-19T20:14:51.146Z,100661.59
2023-01-19T20:17:20.388Z,100672.00
2023-01-19T20:19:49.904Z,100671.31
2023-01-19T20:22:17.935Z,100668.00
2023-01-19T20:24:47.671Z,100668.34
2023-01-19T20:27:15.588Z,100671.91
2023-01-19T20:29:42.814Z,100677.13
2023-01-19T20:32:11.040Z,100679.97
2023-01-19T20:34:38.746Z,100687.91
2023-01-19T20:37:06.526Z,100686.47
2023-01-19T20:39:35.817Z,100690.13
2023-01-19T20:42:02.926Z,100694.50
2023-01-19T20:44:30.565Z,100695.34
2023-01-19T20:46:57.565Z,100701.38
2023-01-19T20:49:25.050Z,100698.91
2023-01-19T20:51:52.400Z,100706.72
2023-01-19T20:54:20.567Z,100711.22
2023-01-19T20:56:47.694Z,100715.50
2023-01-19T20:59:14.806Z,100712.06
2023-01-19T21:01:42.445Z,100720.22
2023-01-19T21:04:10.374Z,100723.88
2023-01-19T21:06:37.998Z,100723.88
2023-01-19T21:09:05.096Z,100722.34
2023-01-19T21:11:32.388Z,100724.13
2023-01-19T21:13:59.400Z,100722.34
2023-01-19T21:16:27.991Z,100727.66
2023-01-19T21:18:55.365Z,100731.31
2023-01-19T21:21:30.373Z,100727.91
2023-01-19T21:23:59.017Z,100741.16
2023-01-19T21:26:26.400Z,100741.41
2023-01-19T21:28:53.529Z,100746.81
2023-01-19T21:31:23.431Z,100747.78
2023-01-19T21:33:53.990Z,100755.59
2023-01-19T21:36:21.552Z,100758.41
2023-01-19T21:38:49.065Z,100763.63
2023-01-19T21:41:16.735Z,100766.47
2023-01-19T21:43:43.752Z,100763.13
2023-01-19T21:46:12.099Z,100765.75
2023-01-19T21:48:39.230Z,100773.56
2023-01-19T21:51:06.571Z,100768.13
2023-01-19T21:53:33.573Z,100775.22
2023-01-19T21:56:00.855Z,100783.88
2023-01-19T21:58:27.915Z,100790.13
2023-01-19T22:00:58.283Z,100789.28
2023-01-19T22:03:27.568Z,100787.66
2023-01-19T22:05:56.170Z,100792.72
2023-01-19T22:08:24.104Z,100793.56
2023-01-19T22:10:51.156Z,100793.78
2023-01-19T22:13:18.232Z,100794.00
2023-01-19T22:15:45.241Z,100803.59
2023-01-19T22:18:12.237Z,100801.94
2023-01-19T22:20:39.295Z,100791.53
2023-01-19T22:23:06.243Z,100795.91
2023-01-19T22:25:33.698Z,100800.16
2023-01-19T22:28:00.715Z,100800.66
2023-01-19T22:30:27.811Z,100802.53
2023-01-19T22:32:54.974Z,100807.00
2023-01-19T22:35:21.958Z,100806.31
2023-01-19T22:37:49.029Z,100810.69
2023-01-19T22:40:16.379Z,100819.44
2023-01-19T22:42:46.974Z,100821.94
2023-01-19T22:45:14.331Z,100818.41
2023-01-19T22:47:41.838Z,100824.31
2023-01-19T22:50:09.220Z,100829.50
2023-01-19T22:52:36.134Z,100822.63
2023-01-19T22:55:03.155Z,100835.56
2023-01-19T22:57:36.007Z,100830.25
2023-01-19T23:00:07.132Z,100831.06
2023-01-19T23:02:34.454Z,100833.53
2023-01-19T23:05:01.661Z,100838.75
2023-01-19T23:07:28.681Z,100834.28
2023-01-19T23:09:55.695Z,100833.09
2023-01-19T23:12:22.774Z,100834.03
2023-01-19T23:14:49.736Z,100838.31
2023-01-19T23:17:16.739Z,100843.31
2023-01-19T23:19:43.852Z,100851.72
2023-01-19T23:22:10.838Z,100844.75
2023-01-19T23:24:37.896Z,100847.34
2023-01-19T23:27:04.945Z,100849.13
2023-01-19T23:29:32.012Z,100841.31
2023-01-19T23:31:58.937Z,100842.13
2023-01-19T23:34:25.785Z,100850.66
2023-01-19T23:36:52.636Z,100848.78
2023-01-19T23:39:20.744Z,100853.75
2023-01-19T23:41:48.333Z,100851.88
2023-01-19T23:44:15.222Z,100843.94
2023-01-19T23:46:42.125Z,100855.06
2023-01-19T23:49:09.100Z,100851.63
2023-01-19T23:51:36.120Z,100858.00
2023-01-19T23:54:03.015Z,100853.75
2023-01-19T23:56:32.150Z,100860.03
2023-01-19T23:59:01.455Z,100852.44
